Time;durP1;ratioP1;P1;durP2;ratioP2;P2;SDS_P1;SDS_P2;PMS_P1;PMS_P2;Temp;Humidity;BMP_temperature;BMP_pressure;BME280_temperature;BME280_humidity;BME280_pressure;Samples;Min_cycle;Max_cycle;Signal;HPM_P1;HPM_P2
2023/09/26 00:01:17;;;;;;;3.45;1.70;;;;;;;10.33;64.41;100631.09;10270700;28;20049;-60
2023/09/26 00:06:23;;;;;;;2.05;1.35;;;;;;;10.04;64.66;100641.22;10301535;28;20042;-59
2023/09/26 00:11:25;;;;;;;3.65;1.65;;;;;;;9.83;64.74;100642.22;10283581;28;20046;-59
2023/09/26 00:16:27;;;;;;;3.15;1.50;;;;;;;9.85;65.02;100640.38;10302122;28;20050;-59
2023/09/26 00:21:29;;;;;;;5.53;2.22;;;;;;;9.91;65.07;100635.69;10300895;28;20108;-59
2023/09/26 00:26:31;;;;;;;2.88;1.58;;;;;;;9.96;65.04;100638.09;10302042;28;20054;-59
2023/09/26 00:31:33;;;;;;;3.22;1.60;;;;;;;9.97;65.00;100630.19;10301396;28;20131;-59
2023/09/26 00:36:35;;;;;;;2.03;1.30;;;;;;;9.99;64.91;100633.56;10251701;28;20120;-59
2023/09/26 00:41:38;;;;;;;3.00;1.50;;;;;;;9.96;65.00;100625.03;10300678;28;20046;-60
2023/09/26 00:46:41;;;;;;;3.75;1.65;;;;;;;9.94;64.95;100630.34;10282368;28;20046;-59
2023/09/26 00:51:43;;;;;;;3.75;1.60;;;;;;;9.85;64.78;100633.38;10300725;28;20048;-59
2023/09/26 00:56:45;;;;;;;1.73;1.20;;;;;;;9.81;64.94;100628.38;10280652;28;20050;-60
2023/09/26 01:01:50;;;;;;;6.25;1.52;;;;;;;9.79;64.87;100624.97;10282208;28;20113;-59
2023/09/26 01:06:52;;;;;;;7.07;1.90;;;;;;;9.65;64.90;100623.78;10282452;28;20124;-59
2023/09/26 01:11:54;;;;;;;2.38;1.30;;;;;;;9.45;65.19;100622.97;10299892;28;20503;-59
2023/09/26 01:16:56;;;;;;;1.73;1.17;;;;;;;9.43;65.04;100619.59;10282829;28;20043;-59
2023/09/26 01:21:58;;;;;;;2.55;1.60;;;;;;;9.47;65.04;100619.41;10299510;28;20438;-59
2023/09/26 01:27:01;;;;;;;2.00;1.35;;;;;;;9.55;65.07;100608.59;10313081;28;20042;-59
2023/09/26 01:32:03;;;;;;;3.55;1.20;;;;;;;9.67;64.99;100605.47;10298958;28;20054;-59
2023/09/26 01:37:07;;;;;;;11.43;2.17;;;;;;;9.70;64.76;100610.56;10281142;28;20046;-59
2023/09/26 01:42:09;;;;;;;3.05;1.52;;;;;;;9.77;64.89;100600.69;10299140;28;20457;-59
2023/09/26 01:47:21;;;;;;;2.17;1.25;;;;;;;9.87;64.99;100597.56;10299255;28;20061;-59
2023/09/26 01:52:23;;;;;;;2.30;1.20;;;;;;;10.00;64.65;100583.03;10297937;28;20047;-59
2023/09/26 01:57:25;;;;;;;2.75;1.60;;;;;;;9.96;64.46;100580.63;10298006;28;20184;-59
2023/09/26 02:02:27;;;;;;;27.83;2.67;;;;;;;9.88;64.84;100580.13;10299543;28;20043;-59
2023/09/26 02:07:29;;;;;;;32.92;3.17;;;;;;;9.87;65.18;100579.28;10306620;28;20406;-59
2023/09/26 02:12:33;;;;;;;8.93;2.10;;;;;;;9.98;65.40;100586.63;10305975;28;20065;-59
2023/09/26 02:17:36;;;;;;;90.55;3.83;;;;;;;10.08;65.20;100580.88;10305259;28;20486;-59
2023/09/26 02:22:39;;;;;;;18.35;2.03;;;;;;;10.12;65.26;100582.44;10305488;28;20481;-59
2023/09/26 02:27:43;;;;;;;10.00;1.92;;;;;;;10.15;65.21;100576.22;10307179;28;20426;-59
2023/09/26 02:32:45;;;;;;;35.40;2.63;;;;;;;10.18;65.25;100576.06;10305273;28;20485;-59
2023/09/26 02:37:48;;;;;;;4.75;1.85;;;;;;;10.14;65.14;100575.38;10285730;28;20283;-59
2023/09/26 02:42:51;;;;;;;35.72;2.65;;;;;;;10.22;65.33;100569.78;10276055;28;20065;-59
2023/09/26 02:47:53;;;;;;;3.05;1.58;;;;;;;10.20;65.20;100571.59;10287442;28;20660;-59
2023/09/26 02:52:57;;;;;;;78.55;2.88;;;;;;;10.23;65.19;100572.34;10305106;28;20078;-59
2023/09/26 02:57:59;;;;;;;21.02;1.70;;;;;;;10.17;65.51;100574.38;10317933;28;20137;-59
2023/09/26 03:03:01;;;;;;;29.20;2.47;;;;;;;10.09;65.23;100580.00;10303881;28;20057;-60
2023/09/26 03:08:04;;;;;;;57.15;4.22;;;;;;;9.93;65.43;100576.38;10305983;28;20046;-59
2023/09/26 03:13:06;;;;;;;12.25;2.38;;;;;;;9.92;65.70;100577.31;10285008;28;20341;-60
2023/09/26 03:18:08;;;;;;;62.20;4.53;;;;;;;9.84;65.57;100566.38;10302845;28;20142;-59
2023/09/26 03:23:10;;;;;;;83.03;4.90;;;;;;;9.70;65.62;100573.16;10302906;28;20489;-59
2023/09/26 03:28:12;;;;;;;91.95;5.68;;;;;;;9.72;65.85;100569.56;10303606;28;20058;-59
2023/09/26 03:33:15;;;;;;;22.33;3.25;;;;;;;9.72;66.01;100576.53;10287795;28;20143;-59
2023/09/26 03:38:17;;;;;;;49.08;4.10;;;;;;;9.77;65.60;100577.19;10303950;28;20046;-60
2023/09/26 03:43:18;;;;;;;5.80;1.80;;;;;;;9.69;65.83;100576.69;10258921;28;20050;-59
2023/09/26 03:48:20;;;;;;;11.20;2.53;;;;;;;9.74;65.93;100575.56;10302958;28;20066;-60
2023/09/26 03:53:22;;;;;;;65.05;3.85;;;;;;;9.83;65.82;100572.50;10304441;28;20064;-60
2023/09/26 03:58:25;;;;;;;30.08;2.22;;;;;;;9.89;65.70;100566.16;10301796;28;20562;-60
2023/09/26 04:03:27;;;;;;;3.65;1.67;;;;;;;9.89;65.44;100569.59;10302427;28;20046;-60
2023/09/26 04:08:29;;;;;;;4.32;1.75;;;;;;;9.64;65.80;100579.47;10301527;28;20462;-60
2023/09/26 04:13:31;;;;;;;2.97;1.75;;;;;;;9.62;65.93;100576.94;10301670;28;20074;-59
2023/09/26 04:18:33;;;;;;;6.78;2.10;;;;;;;9.69;66.04;100589.75;10284394;28;20046;-60
2023/09/26 04:23:35;;;;;;;96.15;4.05;;;;;;;9.71;66.19;100574.84;10301820;28;20092;-60
2023/09/26 04:28:37;;;;;;;74.85;4.80;;;;;;;9.81;65.94;100570.91;10301431;28;20053;-59
2023/09/26 04:33:39;;;;;;;35.05;2.70;;;;;;;9.82;66.05;100556.91;10300377;28;20054;-60
2023/09/26 04:38:42;;;;;;;22.70;2.90;;;;;;;9.81;66.22;100550.00;10302537;28;20517;-60
2023/09/26 04:43:44;;;;;;;8.10;2.40;;;;;;;9.85;66.41;100554.97;10300734;28;20038;-60
2023/09/26 04:48:46;;;;;;;9.65;2.20;;;;;;;9.84;66.24;100550.69;10303115;28;20058;-60
2023/09/26 04:53:48;;;;;;;41.05;3.05;;;;;;;9.87;66.40;100547.09;10301908;28;20057;-60
2023/09/26 04:58:50;;;;;;;57.28;3.15;;;;;;;9.92;65.93;100552.94;10300591;28;20046;-60
2023/09/26 05:03:52;;;;;;;31.30;2.67;;;;;;;9.82;66.29;100556.91;10272241;28;20443;-60
2023/09/26 05:08:55;;;;;;;82.63;4.90;;;;;;;9.72;66.18;100555.63;10300370;28;20042;-59
2023/09/26 05:13:59;;;;;;;35.92;3.40;;;;;;;9.76;66.31;100562.41;10299872;28;20034;-59
2023/09/26 05:19:00;;;;;;;49.85;2.83;;;;;;;9.77;66.64;100570.16;10267482;28;20873;-59
2023/09/26 05:24:04;;;;;;;105.32;3.63;;;;;;;9.60;66.59;100570.94;10299668;28;20494;-60
2023/09/26 05:29:06;;;;;;;99.32;4.65;;;;;;;9.59;66.52;100571.84;10281530;28;20399;-60
2023/09/26 05:34:08;;;;;;;47.60;3.97;;;;;;;9.60;66.44;100581.38;10301417;28;20053;-60
2023/09/26 05:39:10;;;;;;;18.13;2.63;;;;;;;9.63;66.85;100583.84;10299811;28;20058;-60
2023/09/26 05:44:12;;;;;;;5.18;1.85;;;;;;;9.79;66.72;100577.97;10267178;28;20545;-60
2023/09/26 05:49:14;;;;;;;29.05;2.45;;;;;;;9.77;66.88;100577.19;10299232;28;20145;-60
2023/09/26 05:54:16;;;;;;;68.53;3.97;;;;;;;9.91;66.55;100577.38;10298988;28;20397;-59
2023/09/26 05:59:32;;;;;;;23.85;2.63;;;;;;;10.00;66.61;100572.56;10299239;28;20174;-60
2023/09/26 06:04:34;;;;;;;50.17;3.50;;;;;;;9.94;66.52;100577.22;10299741;28;20057;-59
2023/09/26 06:09:37;;;;;;;25.08;2.03;;;;;;;10.02;66.54;100577.72;10285818;28;20141;-61
2023/09/26 06:14:51;;;;;;;12.60;1.90;;;;;;;10.07;66.37;100576.59;10295967;28;20046;-60
2023/09/26 06:19:55;;;;;;;7.28;2.15;;;;;;;10.21;66.01;100578.53;10297151;28;20050;-61
2023/09/26 06:24:58;;;;;;;77.85;5.85;;;;;;;10.26;65.53;100579.16;10297030;28;20046;-60
2023/09/26 06:30:00;;;;;;;74.03;3.58;;;;;;;10.20;65.68;100579.44;10273796;28;20057;-60
2023/09/26 06:35:02;;;;;;;26.65;2.50;;;;;;;10.35;65.44;100573.50;10295208;28;20080;-60
2023/09/26 06:40:05;;;;;;;77.97;4.07;;;;;;;10.43;65.35;100579.19;10293840;28;20046;-60
2023/09/26 06:45:09;;;;;;;112.25;5.47;;;;;;;10.48;65.10;100578.03;10294500;28;20712;-60
2023/09/26 06:50:12;;;;;;;16.38;2.45;;;;;;;10.60;65.15;100578.38;10303695;28;20581;-62
2023/09/26 06:55:14;;;;;;;54.85;3.97;;;;;;;10.63;64.72;100578.22;10306062;28;20050;-63
2023/09/26 07:00:16;;;;;;;2.60;1.65;;;;;;;10.42;64.81;100578.34;10287531;28;20589;-63
2023/09/26 07:05:20;;;;;;;4.28;1.92;;;;;;;10.62;65.13;100581.75;10304728;28;20100;-62
2023/09/26 07:10:22;;;;;;;34.38;2.63;;;;;;;10.64;64.54;100574.69;10303922;28;20057;-63
2023/09/26 07:15:28;;;;;;;8.52;2.03;;;;;;;10.46;64.88;100571.22;10304369;28;20042;-63
2023/09/26 07:20:30;;;;;;;15.77;2.28;;;;;;;10.38;65.19;100568.09;10286113;28;20652;-63
2023/09/26 07:25:32;;;;;;;13.82;2.20;;;;;;;10.56;64.87;100572.47;10304340;28;20054;-62
2023/09/26 07:30:34;;;;;;;42.55;4.18;;;;;;;10.40;64.67;100582.81;10304499;28;20057;-63
2023/09/26 07:35:36;;;;;;;38.20;3.70;;;;;;;10.58;64.36;100575.84;10304773;28;20283;-63
2023/09/26 07:40:40;;;;;;;77.05;3.22;;;;;;;11.01;64.18;100580.59;10303450;28;20077;-63
2023/09/26 07:45:42;;;;;;;64.32;4.10;;;;;;;11.38;63.31;100576.13;10302815;28;20049;-63
2023/09/26 07:50:44;;;;;;;8.15;2.20;;;;;;;11.65;63.34;100572.00;10301039;28;20706;-63
2023/09/26 07:55:48;;;;;;;13.88;2.53;;;;;;;12.13;62.15;100569.28;10302936;28;20731;-63
2023/09/26 08:00:53;;;;;;;31.15;2.50;;;;;;;12.31;62.09;100567.47;10302874;28;20135;-63
2023/09/26 08:06:03;;;;;;;3.78;2.15;;;;;;;12.75;61.58;100563.97;10303521;28;20388;-63
2023/09/26 08:11:08;;;;;;;35.20;3.10;;;;;;;12.86;60.91;100565.97;10302517;28;20293;-62
2023/09/26 08:16:10;;;;;;;3.35;2.15;;;;;;;12.92;60.93;100571.69;10301283;28;20054;-63
2023/09/26 08:21:13;;;;;;;6.38;2.40;;;;;;;12.44;61.05;100568.44;10302198;28;20054;-63
2023/09/26 08:26:15;;;;;;;4.35;2.50;;;;;;;12.72;61.06;100558.88;10302464;28;20053;-63
2023/09/26 08:31:17;;;;;;;4.45;2.15;;;;;;;12.76;60.78;100555.16;10297083;28;20069;-63
2023/09/26 08:36:21;;;;;;;10.50;2.45;;;;;;;12.79;60.60;100554.97;10300259;28;20585;-63
2023/09/26 08:41:26;;;;;;;4.15;2.22;;;;;;;13.50;59.74;100536.66;10283237;28;20199;-63
2023/09/26 08:46:28;;;;;;;4.35;2.45;;;;;;;13.68;59.41;100536.38;10300798;28;20057;-63
2023/09/26 08:51:30;;;;;;;5.68;2.40;;;;;;;13.66;58.91;100526.88;10299294;28;20134;-63
2023/09/26 08:56:33;;;;;;;4.35;2.40;;;;;;;13.75;58.59;100532.41;10296177;28;20501;-63
2023/09/26 09:01:35;;;;;;;4.50;2.33;;;;;;;14.11;58.02;100529.22;10281884;28;20042;-63
2023/09/26 09:06:37;;;;;;;3.72;2.00;;;;;;;14.21;57.96;100527.66;10299624;28;20042;-63
2023/09/26 09:11:39;;;;;;;3.38;1.98;;;;;;;14.75;57.63;100525.00;10300766;28;20042;-63
2023/09/26 09:16:53;;;;;;;5.03;2.40;;;;;;;14.89;56.44;100519.63;10300642;28;20484;-63
2023/09/26 09:22:14;;;;;;;5.22;2.30;;;;;;;14.71;56.53;100513.81;10277442;28;20529;-63
2023/09/26 09:27:16;;;;;;;4.83;2.20;;;;;;;14.97;57.05;100514.69;10282079;28;20048;-63
2023/09/26 09:32:18;;;;;;;5.45;2.55;;;;;;;15.22;56.56;100505.00;10297649;28;20489;-64
2023/09/26 09:37:20;;;;;;;4.82;2.28;;;;;;;15.50;56.27;100498.63;10298823;28;20042;-63
2023/09/26 09:42:22;;;;;;;5.85;2.25;;;;;;;15.51;56.01;100488.94;10299241;28;20197;-63
2023/09/26 09:47:26;;;;;;;4.30;1.95;;;;;;;15.77;55.82;100483.47;10299013;28;20047;-63
2023/09/26 09:52:32;;;;;;;3.75;2.40;;;;;;;15.99;55.52;100474.84;10299284;28;20270;-63
2023/09/26 09:57:41;;;;;;;3.53;1.90;;;;;;;16.02;54.86;100470.16;10298432;28;20074;-63
2023/09/26 10:02:45;;;;;;;4.15;2.00;;;;;;;16.32;55.15;100456.50;10298105;28;20441;-63
2023/09/26 10:07:49;;;;;;;4.15;2.50;;;;;;;16.39;54.36;100456.88;10298265;28;20325;-63
2023/09/26 10:12:52;;;;;;;4.10;2.13;;;;;;;16.62;54.23;100445.44;10299889;28;20091;-63
2023/09/26 10:18:15;;;;;;;4.15;2.15;;;;;;;16.69;54.08;100450.13;10303269;28;20046;-63
2023/09/26 10:23:18;;;;;;;3.33;2.05;;;;;;;17.04;53.75;100442.09;10287758;28;20061;-62
2023/09/26 10:28:21;;;;;;;3.42;2.00;;;;;;;17.32;53.38;100438.16;10305218;28;20522;-63
2023/09/26 10:33:23;;;;;;;4.53;2.10;;;;;;;17.34;52.16;100434.44;10303899;28;20054;-63
2023/09/26 10:39:09;;;;;;;4.97;2.42;;;;;;;17.64;51.88;100433.78;10304630;28;20129;-62
2023/09/26 10:44:12;;;;;;;3.65;2.13;;;;;;;17.69;52.80;100424.50;10287686;28;20137;-63
2023/09/26 10:49:14;;;;;;;4.10;2.05;;;;;;;17.81;52.51;100414.75;10304945;28;20132;-62
2023/09/26 10:54:16;;;;;;;3.67;2.10;;;;;;;17.80;52.26;100413.91;10303823;28;20417;-62
2023/09/26 10:59:18;;;;;;;4.13;2.40;;;;;;;17.95;52.68;100409.16;10304996;28;20050;-62
2023/09/26 11:04:20;;;;;;;6.60;2.30;;;;;;;17.94;52.38;100414.53;10305403;28;20317;-62
2023/09/26 11:09:27;;;;;;;5.15;2.20;;;;;;;18.10;52.19;100407.84;10302749;28;20481;-63
2023/09/26 11:14:29;;;;;;;4.15;2.17;;;;;;;18.29;52.27;100402.75;10304939;28;20053;-62
2023/09/26 11:19:31;;;;;;;4.47;2.70;;;;;;;18.38;51.97;100395.84;10303418;28;20401;-62
2023/09/26 11:24:33;;;;;;;3.53;1.95;;;;;;;18.62;52.16;100391.09;10302439;28;20054;-63
2023/09/26 11:29:35;;;;;;;4.70;2.63;;;;;;;18.71;51.72;100379.69;10303926;28;20552;-62
2023/09/26 11:34:38;;;;;;;4.32;2.40;;;;;;;18.77;52.22;100365.91;10304302;28;20478;-62
2023/09/26 11:39:40;;;;;;;7.20;2.20;;;;;;;18.96;51.70;100366.00;10305671;28;20046;-63
2023/09/26 11:44:51;;;;;;;4.65;2.65;;;;;;;19.17;51.16;100356.19;10303139;28;20050;-62
2023/09/26 11:49:54;;;;;;;3.80;2.17;;;;;;;19.41;51.33;100354.00;10302796;28;20046;-62
2023/09/26 11:54:56;;;;;;;4.07;2.00;;;;;;;19.68;51.75;100348.03;10301566;28;20046;-62
2023/09/26 11:59:58;;;;;;;3.10;1.75;;;;;;;19.92;51.06;100348.47;10303080;28;20042;-62
2023/09/26 12:05:00;;;;;;;4.15;2.08;;;;;;;20.04;50.91;100342.03;10284730;28;20043;-63
2023/09/26 12:10:03;;;;;;;3.92;2.20;;;;;;;20.28;50.57;100337.06;10285500;28;20479;-62
2023/09/26 12:15:34;;;;;;;4.28;1.83;;;;;;;20.52;49.25;100330.44;10300816;28;20129;-63
2023/09/26 12:20:36;;;;;;;5.45;1.98;;;;;;;20.77;49.96;100322.66;10294999;28;20070;-62
2023/09/26 12:25:38;;;;;;;3.53;1.80;;;;;;;20.93;49.66;100330.84;10266487;28;20137;-63
2023/09/26 12:30:41;;;;;;;3.38;1.90;;;;;;;21.08;48.90;100317.88;10300890;28;20046;-63
2023/09/26 12:35:43;;;;;;;4.07;1.80;;;;;;;21.29;48.61;100309.63;10299770;28;20084;-63
2023/09/26 12:40:45;;;;;;;2.80;1.60;;;;;;;21.39;48.58;100305.09;10296188;28;20651;-63
2023/09/26 12:45:47;;;;;;;2.85;1.60;;;;;;;21.59;48.22;100306.63;10297773;28;20418;-63
2023/09/26 12:50:49;;;;;;;2.97;1.60;;;;;;;21.79;48.09;100292.16;10300783;28;20188;-63
2023/09/26 12:55:52;;;;;;;2.78;1.58;;;;;;;22.01;47.85;100296.97;10280058;28;20125;-63
2023/09/26 13:00:54;;;;;;;2.63;1.60;;;;;;;22.09;47.88;100285.59;10291723;28;20053;-63
2023/09/26 13:05:56;;;;;;;2.90;1.60;;;;;;;22.22;47.40;100272.66;10296685;28;20039;-63
2023/09/26 13:10:59;;;;;;;2.70;1.45;;;;;;;22.45;47.14;100274.63;10290652;28;20064;-63
2023/09/26 13:16:01;;;;;;;1.55;1.17;;;;;;;22.60;46.51;100272.19;10295009;28;20121;-63
2023/09/26 13:21:03;;;;;;;2.38;1.45;;;;;;;22.62;46.70;100273.72;10288638;28;20050;-63
2023/09/26 13:26:05;;;;;;;2.25;1.35;;;;;;;22.75;46.52;100273.28;10290225;28;20045;-63
2023/09/26 13:31:07;;;;;;;2.90;1.40;;;;;;;22.85;46.53;100271.34;10284993;28;20498;-63
2023/09/26 13:36:10;;;;;;;2.63;1.45;;;;;;;22.82;45.63;100262.81;10265143;28;20435;-62
2023/09/26 13:41:12;;;;;;;3.17;1.70;;;;;;;22.98;45.18;100260.19;10290563;28;20058;-62
2023/09/26 13:46:14;;;;;;;4.07;1.40;;;;;;;23.16;44.73;100252.91;10290688;28;20108;-62
2023/09/26 13:51:17;;;;;;;3.03;1.50;;;;;;;23.22;44.65;100263.75;10282267;28;20057;-62
2023/09/26 13:56:19;;;;;;;4.13;1.50;;;;;;;23.37;44.56;100262.09;10290699;28;20046;-63
2023/09/26 14:01:21;;;;;;;2.55;1.30;;;;;;;23.49;44.30;100260.78;10289473;28;20196;-63
2023/09/26 14:06:24;;;;;;;3.95;1.42;;;;;;;23.50;43.96;100272.31;10270275;28;20053;-63
2023/09/26 14:11:29;;;;;;;4.50;1.40;;;;;;;23.57;44.08;100267.16;10281743;28;20057;-63
2023/09/26 14:16:31;;;;;;;3.08;1.40;;;;;;;23.67;43.74;100265.16;10255384;28;20102;-63
2023/09/26 14:21:35;;;;;;;2.30;1.42;;;;;;;23.44;43.75;100263.16;10289080;28;20062;-62
2023/09/26 14:26:37;;;;;;;3.17;1.48;;;;;;;23.50;43.33;100258.97;10287348;28;20042;-63
2023/09/26 14:31:39;;;;;;;3.55;1.40;;;;;;;23.37;41.69;100255.94;10289071;28;20417;-63
2023/09/26 14:36:41;;;;;;;3.47;1.58;;;;;;;23.55;43.40;100251.31;10257296;28;20433;-62
2023/09/26 14:41:45;;;;;;;4.30;1.58;;;;;;;23.66;43.36;100252.78;10290515;28;20445;-62
2023/09/26 14:46:47;;;;;;;2.47;1.40;;;;;;;23.73;43.53;100251.97;10290109;28;20430;-63
2023/09/26 14:51:49;;;;;;;3.10;1.35;;;;;;;23.82;43.16;100253.63;10290246;28;20078;-63
2023/09/26 14:56:51;;;;;;;1.85;1.40;;;;;;;23.93;43.41;100252.44;10289807;28;20322;-63
2023/09/26 15:01:53;;;;;;;3.03;1.50;;;;;;;23.78;43.67;100248.78;10297054;28;20673;-62
2023/09/26 15:06:55;;;;;;;3.08;1.33;;;;;;;23.82;43.26;100250.13;10301185;28;20045;-63
2023/09/26 15:11:57;;;;;;;4.28;1.40;;;;;;;23.77;42.79;100247.13;10298556;28;20045;-63
2023/09/26 15:17:01;;;;;;;3.58;1.33;;;;;;;23.68;43.30;100246.28;10300921;28;20042;-63
2023/09/26 15:22:03;;;;;;;2.15;1.40;;;;;;;23.74;43.27;100242.94;10301904;28;20050;-62
2023/09/26 15:27:05;;;;;;;2.10;1.27;;;;;;;23.68;43.17;100234.75;10300901;28;20034;-63
2023/09/26 15:32:07;;;;;;;1.95;1.15;;;;;;;23.59;43.19;100228.63;10299488;28;20046;-62
2023/09/26 15:37:09;;;;;;;1.92;1.20;;;;;;;23.51;43.22;100233.13;10301091;28;20057;-62
2023/09/26 15:42:11;;;;;;;2.17;1.40;;;;;;;23.39;43.40;100236.06;10300825;28;20286;-63
2023/09/26 15:47:13;;;;;;;2.35;1.48;;;;;;;23.19;43.61;100233.88;10299212;28;20038;-63
2023/09/26 15:52:15;;;;;;;1.83;1.20;;;;;;;23.01;44.73;100238.53;10299262;28;20057;-62
2023/09/26 15:57:17;;;;;;;2.22;1.40;;;;;;;22.93;45.36;100241.16;10299774;28;20050;-62
2023/09/26 16:02:20;;;;;;;2.13;1.42;;;;;;;22.91;44.59;100232.50;10299997;28;20049;-62
2023/09/26 16:07:22;;;;;;;2.22;1.40;;;;;;;22.76;45.92;100240.28;10297446;28;20058;-63
2023/09/26 16:12:24;;;;;;;3.28;1.83;;;;;;;22.56;46.61;100244.19;10277798;28;20317;-62
2023/09/26 16:17:26;;;;;;;2.40;1.40;;;;;;;22.29;47.25;100255.88;10295417;28;20605;-62
2023/09/26 16:22:28;;;;;;;2.35;1.45;;;;;;;21.90;49.06;100247.47;10283705;28;20054;-63
2023/09/26 16:27:30;;;;;;;2.75;1.15;;;;;;;21.52;49.81;100247.00;10292847;28;20210;-62
2023/09/26 16:32:32;;;;;;;2.97;1.52;;;;;;;21.15;50.93;100259.63;10276501;28;20046;-62
2023/09/26 16:37:34;;;;;;;2.45;1.35;;;;;;;20.79;51.14;100262.22;10294066;28;20609;-63
2023/09/26 16:42:38;;;;;;;2.72;1.50;;;;;;;20.47;51.61;100264.44;10295729;28;20050;-62
2023/09/26 16:47:40;;;;;;;3.17;1.40;;;;;;;20.27;51.93;100276.13;10292886;28;20048;-62
2023/09/26 16:52:47;;;;;;;1.83;1.30;;;;;;;20.01;53.11;100267.94;10260110;28;20070;-62
2023/09/26 16:57:49;;;;;;;2.78;1.60;;;;;;;19.76;53.95;100276.50;10289513;28;20315;-62
2023/09/26 17:02:51;;;;;;;2.80;1.55;;;;;;;19.50;54.39;100278.06;10264078;28;20559;-62
2023/09/26 17:07:53;;;;;;;2.47;1.40;;;;;;;19.16;55.44;100282.91;10291240;28;20042;-62
2023/09/26 17:12:59;;;;;;;3.55;1.58;;;;;;;18.98;55.96;100284.53;10293367;28;20042;-62
2023/09/26 17:18:01;;;;;;;3.80;1.50;;;;;;;18.85;56.34;100288.41;10286770;28;20299;-62
2023/09/26 17:23:03;;;;;;;1.90;1.33;;;;;;;18.67;56.57;100285.56;10289114;28;20050;-62
2023/09/26 17:28:06;;;;;;;1.67;1.30;;;;;;;18.50;57.13;100287.00;10292010;28;20185;-62
2023/09/26 17:33:08;;;;;;;2.38;1.40;;;;;;;18.32;57.49;100287.78;10293402;28;20547;-62
2023/09/26 17:38:10;;;;;;;2.42;1.52;;;;;;;18.16;57.90;100292.66;10297304;28;20078;-62
2023/09/26 17:43:12;;;;;;;2.75;1.60;;;;;;;17.95;58.59;100298.00;10290433;28;20441;-63
2023/09/26 17:48:14;;;;;;;2.33;1.40;;;;;;;17.72;59.04;100305.22;10258759;28;20050;-62
2023/09/26 17:53:16;;;;;;;2.22;1.70;;;;;;;17.57;59.55;100293.25;10287250;28;20173;-60
2023/09/26 17:58:18;;;;;;;3.22;1.70;;;;;;;17.44;59.93;100299.69;10278590;28;20156;-60
2023/09/26 18:03:22;;;;;;;2.67;1.85;;;;;;;17.34;59.80;100304.91;10294033;28;20074;-60
2023/09/26 18:08:25;;;;;;;2.78;1.98;;;;;;;17.25;60.31;100310.91;10296393;28;20249;-60
2023/09/26 18:13:27;;;;;;;2.55;1.75;;;;;;;17.16;60.67;100319.56;10295974;28;20043;-60
2023/09/26 18:18:29;;;;;;;2.85;1.60;;;;;;;16.99;60.97;100331.50;10296687;28;20054;-60
2023/09/26 18:23:33;;;;;;;3.33;1.70;;;;;;;16.79;61.44;100334.88;10309598;28;20064;-60
2023/09/26 18:28:35;;;;;;;2.85;1.75;;;;;;;16.64;61.79;100341.38;10271350;28;20084;-60
2023/09/26 18:33:37;;;;;;;4.43;1.80;;;;;;;16.64;62.04;100344.00;10297244;28;20168;-60
2023/09/26 18:38:39;;;;;;;3.75;1.95;;;;;;;16.59;61.81;100353.25;10299293;28;20039;-60
2023/09/26 18:43:41;;;;;;;3.78;1.63;;;;;;;16.45;62.25;100362.22;10297251;28;20117;-61
2023/09/26 18:48:43;;;;;;;3.22;1.80;;;;;;;16.36;62.51;100367.34;10328625;28;20050;-61
2023/09/26 18:53:45;;;;;;;3.70;2.00;;;;;;;16.19;62.49;100369.50;10296662;28;20391;-60
2023/09/26 18:58:48;;;;;;;3.70;2.10;;;;;;;16.02;62.95;100358.50;10298836;28;20051;-60
2023/09/26 19:03:50;;;;;;;6.47;1.95;;;;;;;15.93;62.91;100375.91;10295362;28;20057;-60
2023/09/26 19:08:53;;;;;;;3.50;1.70;;;;;;;15.91;63.39;100371.69;10280322;28;20099;-60
2023/09/26 19:13:56;;;;;;;2.92;1.70;;;;;;;15.84;63.29;100381.84;10297180;28;20072;-60
2023/09/26 19:19:01;;;;;;;4.05;2.15;;;;;;;15.79;63.34;100378.72;10296322;28;20046;-61
2023/09/26 19:24:13;;;;;;;3.42;2.10;;;;;;;15.65;63.80;100384.16;10296386;28;20062;-61
2023/09/26 19:29:15;;;;;;;2.90;1.85;;;;;;;15.60;63.52;100383.66;10294096;28;20387;-60
2023/09/26 19:34:17;;;;;;;3.83;2.40;;;;;;;15.42;63.86;100388.44;10266222;28;20392;-60
2023/09/26 19:39:19;;;;;;;4.85;1.88;;;;;;;15.39;63.75;100380.75;10294656;28;20081;-60
2023/09/26 19:44:21;;;;;;;4.22;2.20;;;;;;;15.35;63.95;100386.34;10293765;28;20074;-60
2023/09/26 19:49:23;;;;;;;6.60;2.60;;;;;;;15.14;64.59;100378.19;10290449;28;20485;-60
2023/09/26 19:54:25;;;;;;;4.10;2.38;;;;;;;15.15;64.59;100382.53;10288230;28;20143;-60
2023/09/26 19:59:27;;;;;;;4.30;2.20;;;;;;;15.04;64.32;100394.78;10293118;28;20133;-60
2023/09/26 20:04:34;;;;;;;5.68;1.90;;;;;;;15.01;64.31;100397.63;10295413;28;20406;-60
2023/09/26 20:09:36;;;;;;;4.75;1.90;;;;;;;14.88;64.79;100395.00;10293967;28;20057;-60
2023/09/26 20:14:39;;;;;;;3.22;2.00;;;;;;;14.71;65.21;100405.88;10297522;28;20485;-60
2023/09/26 20:19:41;;;;;;;4.85;1.88;;;;;;;14.62;65.01;100405.66;10292709;28;20050;-60
2023/09/26 20:24:44;;;;;;;3.17;1.98;;;;;;;14.73;64.85;100396.09;10280631;28;20058;-60
2023/09/26 20:29:46;;;;;;;2.58;1.70;;;;;;;14.77;64.81;100386.16;10295949;28;20477;-60
2023/09/26 20:34:49;;;;;;;3.63;1.80;;;;;;;14.80;65.05;100378.06;10311403;28;20046;-60
2023/09/26 20:39:52;;;;;;;3.30;2.05;;;;;;;14.71;64.75;100379.56;10295522;28;20049;-60
2023/09/26 20:44:54;;;;;;;4.05;2.10;;;;;;;14.54;64.82;100385.13;10294974;28;20046;-60
2023/09/26 20:49:59;;;;;;;3.40;2.00;;;;;;;14.40;65.31;100382.56;10270991;28;20049;-60
2023/09/26 20:55:03;;;;;;;3.53;1.98;;;;;;;14.44;65.30;100389.31;10279600;28;20050;-60
2023/09/26 21:00:07;;;;;;;3.08;1.70;;;;;;;14.51;65.17;100386.19;10271253;28;20050;-60
2023/09/26 21:05:09;;;;;;;3.92;2.17;;;;;;;14.58;65.01;100386.59;10295435;28;20053;-60
2023/09/26 21:10:14;;;;;;;4.38;1.83;;;;;;;14.49;65.39;100390.69;10297125;28;20425;-60
2023/09/26 21:15:16;;;;;;;3.92;1.80;;;;;;;14.33;65.38;100405.81;10297174;28;20208;-60
2023/09/26 21:20:19;;;;;;;4.82;2.00;;;;;;;14.48;65.37;100412.69;10293682;28;20042;-60
2023/09/26 21:25:21;;;;;;;5.30;2.30;;;;;;;14.58;65.31;100415.56;10287171;28;20677;-60
2023/09/26 21:30:23;;;;;;;5.13;1.90;;;;;;;14.59;65.02;100414.63;10294292;28;20096;-60
2023/09/26 21:35:25;;;;;;;3.38;1.90;;;;;;;14.52;64.97;100414.19;10291516;28;20133;-60
2023/09/26 21:40:27;;;;;;;4.05;1.83;;;;;;;14.56;65.06;100415.66;10292896;28;20046;-60
2023/09/26 21:45:29;;;;;;;3.25;1.83;;;;;;;14.55;64.90;100406.06;10295397;28;20038;-60
2023/09/26 21:50:31;;;;;;;2.97;1.90;;;;;;;14.57;65.04;100404.19;10292977;28;20050;-60
2023/09/26 21:55:36;;;;;;;3.70;1.80;;;;;;;14.54;64.90;100387.75;10291904;28;20517;-61
2023/09/26 22:00:38;;;;;;;5.93;2.70;;;;;;;14.53;64.73;100389.53;10294485;28;20045;-60
2023/09/26 22:05:40;;;;;;;3.08;1.92;;;;;;;14.31;64.89;100372.66;10294438;28;20049;-60
2023/09/26 22:10:42;;;;;;;4.35;2.22;;;;;;;14.13;65.25;100366.00;10293774;28;20103;-60
2023/09/26 22:15:45;;;;;;;4.53;1.95;;;;;;;14.07;65.39;100388.31;10295600;28;20051;-60
2023/09/26 22:20:47;;;;;;;4.38;2.10;;;;;;;13.87;65.84;100411.63;10291310;28;20054;-60
2023/09/26 22:25:48;;;;;;;4.38;2.45;;;;;;;13.86;66.16;100405.50;10290635;28;20557;-60
2023/09/26 22:30:51;;;;;;;5.07;2.20;;;;;;;13.96;65.94;100395.25;10292881;28;20061;-60
2023/09/26 22:35:53;;;;;;;3.60;2.10;;;;;;;13.91;65.80;100395.53;10293850;28;20046;-60
2023/09/26 22:40:55;;;;;;;4.07;2.10;;;;;;;13.95;65.85;100394.41;10290668;28;20050;-60
2023/09/26 22:46:00;;;;;;;3.97;2.10;;;;;;;14.00;65.83;100391.47;10291559;28;20680;-60
2023/09/26 22:51:02;;;;;;;3.83;2.20;;;;;;;13.89;65.85;100404.47;10287675;28;20857;-60
2023/09/26 22:56:04;;;;;;;4.07;2.05;;;;;;;13.87;65.92;100404.59;10272959;28;20763;-60
2023/09/26 23:01:07;;;;;;;3.88;2.10;;;;;;;13.84;65.65;100407.41;10289969;28;20414;-60
2023/09/26 23:06:09;;;;;;;3.30;1.77;;;;;;;13.80;65.82;100408.53;10295099;28;20065;-60
2023/09/26 23:11:11;;;;;;;3.90;2.13;;;;;;;13.70;65.64;100400.41;10291538;28;20050;-60